METAR Data
IDs: Format: Raw Decoded Include TAF

Data at: 0606 UTC 03 Jul 2022

METAR for:EGNX (Nottingham/E Midland, EN, GB)
Text:EGNX 030550Z 22008KT CAVOK 11/09 Q1018
Temperature: 11.0°C ( 52°F)
Dewpoint: 9.0°C ( 48°F) [RH = 87%]
Pressure (altimeter):30.06 inches Hg (1018.0 mb)
Winds:from the SW (220 degrees) at 9 MPH (8 knots; 4.1 m/s)
Visibility:6 or more sm (10+ km)
Ceiling:ceiling and visibility are OK
Clouds:unknown